sensor_id;sensor_type;location;lat;lon;timestamp;pressure;altitude;pressure_sealevel;temperature;humidity
36664;BME280;53333;51.976;20.144;2023-05-02T00:00:47;100139.94;;;10.97;43.41
36664;BME280;53333;51.976;20.144;2023-05-02T00:03:20;100146.31;;;10.94;43.56
36664;BME280;53333;51.976;20.144;2023-05-02T00:05:54;100136.66;;;10.92;43.66
36664;BME280;53333;51.976;20.144;2023-05-02T00:08:27;100137.59;;;10.90;43.44
36664;BME280;53333;51.976;20.144;2023-05-02T00:11:00;100140.19;;;10.92;43.67
36664;BME280;53333;51.976;20.144;2023-05-02T00:13:33;100142.94;;;10.90;43.66
36664;BME280;53333;51.976;20.144;2023-05-02T00:16:06;100135.84;;;10.89;43.72
36664;BME280;53333;51.976;20.144;2023-05-02T00:18:39;100144.81;;;10.88;43.90
36664;BME280;53333;51.976;20.144;2023-05-02T00:21:13;100132.53;;;10.84;43.94
36664;BME280;53333;51.976;20.144;2023-05-02T00:23:46;100136.19;;;10.83;43.92
36664;BME280;53333;51.976;20.144;2023-05-02T00:26:19;100139.78;;;10.82;44.03
36664;BME280;53333;51.976;20.144;2023-05-02T00:28:52;100130.09;;;10.80;44.04
36664;BME280;53333;51.976;20.144;2023-05-02T00:31:25;100129.25;;;10.79;44.03
36664;BME280;53333;51.976;20.144;2023-05-02T00:33:58;100125.78;;;10.77;44.04
36664;BME280;53333;51.976;20.144;2023-05-02T00:36:32;100132.06;;;10.76;44.05
36664;BME280;53333;51.976;20.144;2023-05-02T00:39:05;100129.53;;;10.73;44.26
36664;BME280;53333;51.976;20.144;2023-05-02T00:41:38;100129.69;;;10.70;44.26
36664;BME280;53333;51.976;20.144;2023-05-02T00:44:12;100120.06;;;10.67;44.36
36664;BME280;53333;51.976;20.144;2023-05-02T00:46:45;100116.50;;;10.67;44.50
36664;BME280;53333;51.976;20.144;2023-05-02T00:49:18;100114.78;;;10.66;44.46
36664;BME280;53333;51.976;20.144;2023-05-02T00:51:52;100119.31;;;10.64;44.62
36664;BME280;53333;51.976;20.144;2023-05-02T00:54:25;100109.50;;;10.64;44.59
36664;BME280;53333;51.976;20.144;2023-05-02T00:56:58;100112.19;;;10.64;44.30
36664;BME280;53333;51.976;20.144;2023-05-02T00:59:32;100110.44;;;10.63;44.54
36664;BME280;53333;51.976;20.144;2023-05-02T01:02:20;100113.03;;;10.65;44.77
36664;BME280;53333;51.976;20.144;2023-05-02T01:04:59;100110.53;;;10.62;44.79
36664;BME280;53333;51.976;20.144;2023-05-02T01:08:00;100113.19;;;10.62;44.75
36664;BME280;53333;51.976;20.144;2023-05-02T01:10:46;100107.06;;;10.60;44.70
36664;BME280;53333;51.976;20.144;2023-05-02T01:13:21;100104.56;;;10.57;44.98
36664;BME280;53333;51.976;20.144;2023-05-02T01:15:57;100109.06;;;10.54;44.92
36664;BME280;53333;51.976;20.144;2023-05-02T01:18:34;100103.84;;;10.53;45.22
36664;BME280;53333;51.976;20.144;2023-05-02T01:21:09;100100.13;;;10.56;45.15
36664;BME280;53333;51.976;20.144;2023-05-02T01:23:54;100101.72;;;10.60;45.19
36664;BME280;53333;51.976;20.144;2023-05-02T01:26:34;100099.91;;;10.60;45.18
36664;BME280;53333;51.976;20.144;2023-05-02T01:29:13;100100.75;;;10.61;45.35
36664;BME280;53333;51.976;20.144;2023-05-02T01:31:48;100102.50;;;10.62;45.37
36664;BME280;53333;51.976;20.144;2023-05-02T01:34:22;100096.16;;;10.64;45.39
36664;BME280;53333;51.976;20.144;2023-05-02T01:36:58;100089.69;;;10.68;45.26
36664;BME280;53333;51.976;20.144;2023-05-02T01:39:34;100083.44;;;10.69;45.34
36664;BME280;53333;51.976;20.144;2023-05-02T01:42:10;100083.50;;;10.68;45.47
36664;BME280;53333;51.976;20.144;2023-05-02T01:44:46;100073.91;;;10.64;45.62
36664;BME280;53333;51.976;20.144;2023-05-02T01:47:20;100073.13;;;10.62;45.53
36664;BME280;53333;51.976;20.144;2023-05-02T01:49:54;100067.09;;;10.58;45.56
36664;BME280;53333;51.976;20.144;2023-05-02T01:52:28;100062.75;;;10.56;45.68
36664;BME280;53333;51.976;20.144;2023-05-02T01:55:03;100063.78;;;10.53;45.77
36664;BME280;53333;51.976;20.144;2023-05-02T01:57:39;100057.72;;;10.49;45.88
36664;BME280;53333;51.976;20.144;2023-05-02T02:00:15;100058.66;;;10.48;46.16
36664;BME280;53333;51.976;20.144;2023-05-02T02:02:50;100056.94;;;10.47;46.04
36664;BME280;53333;51.976;20.144;2023-05-02T02:05:24;100056.16;;;10.45;46.22
36664;BME280;53333;51.976;20.144;2023-05-02T02:07:58;100055.25;;;10.45;46.26
36664;BME280;53333;51.976;20.144;2023-05-02T02:10:36;100055.13;;;10.48;46.27
36664;BME280;53333;51.976;20.144;2023-05-02T02:13:16;100050.50;;;10.51;46.35
36664;BME280;53333;51.976;20.144;2023-05-02T02:15:52;100048.53;;;10.55;46.17
36664;BME280;53333;51.976;20.144;2023-05-02T02:18:31;100052.84;;;10.58;46.27
36664;BME280;53333;51.976;20.144;2023-05-02T02:21:10;100049.41;;;10.56;46.22
36664;BME280;53333;51.976;20.144;2023-05-02T02:23:46;100051.28;;;10.53;46.21
36664;BME280;53333;51.976;20.144;2023-05-02T02:26:21;100048.00;;;10.48;46.40
36664;BME280;53333;51.976;20.144;2023-05-02T02:28:55;100052.59;;;10.45;46.59
36664;BME280;53333;51.976;20.144;2023-05-02T02:31:32;100043.09;;;10.39;46.63
36664;BME280;53333;51.976;20.144;2023-05-02T02:34:06;100041.50;;;10.35;46.77
36664;BME280;53333;51.976;20.144;2023-05-02T02:36:44;100049.59;;;10.33;47.03
36664;BME280;53333;51.976;20.144;2023-05-02T02:39:27;100043.53;;;10.30;46.94
36664;BME280;53333;51.976;20.144;2023-05-02T02:42:10;100041.16;;;10.24;47.02
36664;BME280;53333;51.976;20.144;2023-05-02T02:44:53;100041.28;;;10.21;47.30
36664;BME280;53333;51.976;20.144;2023-05-02T02:47:35;100044.19;;;10.16;47.50
36664;BME280;53333;51.976;20.144;2023-05-02T02:50:15;100043.47;;;10.12;47.36
36664;BME280;53333;51.976;20.144;2023-05-02T02:52:54;100047.16;;;10.10;47.59
36664;BME280;53333;51.976;20.144;2023-05-02T02:55:37;100044.63;;;10.07;47.61
36664;BME280;53333;51.976;20.144;2023-05-02T02:58:27;100047.28;;;10.07;47.65
36664;BME280;53333;51.976;20.144;2023-05-02T03:01:26;100042.13;;;10.04;47.62
36664;BME280;53333;51.976;20.144;2023-05-02T03:04:02;100045.81;;;10.01;47.84
36664;BME280;53333;51.976;20.144;2023-05-02T03:06:37;100042.34;;;9.99;47.84
36664;BME280;53333;51.976;20.144;2023-05-02T03:09:14;100040.63;;;9.98;48.07
36664;BME280;53333;51.976;20.144;2023-05-02T03:11:50;100045.09;;;9.97;48.00
36664;BME280;53333;51.976;20.144;2023-05-02T03:14:23;100047.69;;;9.99;48.05
36664;BME280;53333;51.976;20.144;2023-05-02T03:16:56;100044.06;;;10.00;48.15
36664;BME280;53333;51.976;20.144;2023-05-02T03:19:31;100044.06;;;10.00;47.98
36664;BME280;53333;51.976;20.144;2023-05-02T03:22:04;100042.28;;;10.00;47.98
36664;BME280;53333;51.976;20.144;2023-05-02T03:24:39;100041.41;;;10.00;48.22
36664;BME280;53333;51.976;20.144;2023-05-02T03:27:13;100036.00;;;10.02;48.26
36664;BME280;53333;51.976;20.144;2023-05-02T03:29:46;100039.53;;;10.02;48.30
36664;BME280;53333;51.976;20.144;2023-05-02T03:32:19;100038.59;;;10.03;48.41
36664;BME280;53333;51.976;20.144;2023-05-02T03:34:54;100039.41;;;10.05;48.22
36664;BME280;53333;51.976;20.144;2023-05-02T03:37:34;100038.44;;;10.06;48.43
36664;BME280;53333;51.976;20.144;2023-05-02T03:40:07;100036.56;;;10.08;48.25
36664;BME280;53333;51.976;20.144;2023-05-02T03:42:41;100036.41;;;10.11;48.31
36664;BME280;53333;51.976;20.144;2023-05-02T03:45:25;100034.53;;;10.13;48.33
36664;BME280;53333;51.976;20.144;2023-05-02T03:47:59;100034.41;;;10.16;48.32
36664;BME280;53333;51.976;20.144;2023-05-02T03:50:34;100044.03;;;10.19;48.20
36664;BME280;53333;51.976;20.144;2023-05-02T03:53:07;100043.03;;;10.22;48.30
36664;BME280;53333;51.976;20.144;2023-05-02T03:55:49;100040.28;;;10.23;48.26
36664;BME280;53333;51.976;20.144;2023-05-02T03:58:30;100044.53;;;10.27;48.26
36664;BME280;53333;51.976;20.144;2023-05-02T04:01:12;100039.91;;;10.31;48.36
36664;BME280;53333;51.976;20.144;2023-05-02T04:03:47;100045.13;;;10.34;48.37
36664;BME280;53333;51.976;20.144;2023-05-02T04:06:23;100052.03;;;10.38;48.31
36664;BME280;53333;51.976;20.144;2023-05-02T04:09:01;100045.53;;;10.44;48.27
36664;BME280;53333;51.976;20.144;2023-05-02T04:11:42;100049.78;;;10.48;48.32
36664;BME280;53333;51.976;20.144;2023-05-02T04:14:16;100046.09;;;10.50;48.13
36664;BME280;53333;51.976;20.144;2023-05-02T04:16:50;100049.31;;;10.57;48.11
36664;BME280;53333;51.976;20.144;2023-05-02T04:19:43;100049.72;;;10.67;48.10
36664;BME280;53333;51.976;20.144;2023-05-02T04:22:18;100053.88;;;10.72;47.91
36664;BME280;53333;51.976;20.144;2023-05-02T04:24:56;100054.44;;;10.79;47.90
36664;BME280;53333;51.976;20.144;2023-05-02T04:27:30;100049.72;;;10.84;47.79
36664;BME280;53333;51.976;20.144;2023-05-02T04:30:04;100054.75;;;10.90;47.78
36664;BME280;53333;51.976;20.144;2023-05-02T04:32:39;100051.75;;;10.97;47.84
36664;BME280;53333;51.976;20.144;2023-05-02T04:35:13;100047.88;;;11.02;47.69
36664;BME280;53333;51.976;20.144;2023-05-02T04:37:49;100046.56;;;11.11;47.70
36664;BME280;53333;51.976;20.144;2023-05-02T04:40:22;100042.44;;;11.21;47.60
36664;BME280;53333;51.976;20.144;2023-05-02T04:43:03;100045.38;;;11.33;47.39
36664;BME280;53333;51.976;20.144;2023-05-02T04:45:50;100052.06;;;11.41;47.29
36664;BME280;53333;51.976;20.144;2023-05-02T04:48:29;100045.44;;;11.49;47.29
36664;BME280;53333;51.976;20.144;2023-05-02T04:51:02;100050.38;;;11.56;47.22
36664;BME280;53333;51.976;20.144;2023-05-02T04:53:37;100048.13;;;11.64;47.17
36664;BME280;53333;51.976;20.144;2023-05-02T04:56:10;100046.84;;;11.72;47.10
36664;BME280;53333;51.976;20.144;2023-05-02T04:58:43;100050.06;;;11.78;47.12
36664;BME280;53333;51.976;20.144;2023-05-02T05:01:17;100045.22;;;11.85;47.08
36664;BME280;53333;51.976;20.144;2023-05-02T05:03:50;100048.34;;;11.93;47.08
36664;BME280;53333;51.976;20.144;2023-05-02T05:06:23;100046.91;;;12.04;46.95
36664;BME280;53333;51.976;20.144;2023-05-02T05:08:59;100040.06;;;12.14;47.00
36664;BME280;53333;51.976;20.144;2023-05-02T05:11:33;100046.47;;;12.27;46.86
36664;BME280;53333;51.976;20.144;2023-05-02T05:14:06;100045.84;;;12.38;46.68
36664;BME280;53333;51.976;20.144;2023-05-02T05:16:42;100045.09;;;12.50;46.66
36664;BME280;53333;51.976;20.144;2023-05-02T05:19:15;100044.31;;;12.64;46.50
36664;BME280;53333;51.976;20.144;2023-05-02T05:21:48;100041.09;;;12.74;46.44
36664;BME280;53333;51.976;20.144;2023-05-02T05:24:24;100041.38;;;12.83;46.37
36664;BME280;53333;51.976;20.144;2023-05-02T05:26:59;100044.38;;;12.93;46.30
36664;BME280;53333;51.976;20.144;2023-05-02T05:29:32;100044.78;;;13.01;46.36
36664;BME280;53333;51.976;20.144;2023-05-02T05:32:05;100042.56;;;13.08;46.29
36664;BME280;53333;51.976;20.144;2023-05-02T05:34:38;100057.44;;;13.14;46.20
36664;BME280;53333;51.976;20.144;2023-05-02T05:37:11;100053.41;;;13.21;46.18
36664;BME280;53333;51.976;20.144;2023-05-02T05:39:46;100041.25;;;13.30;46.31
36664;BME280;53333;51.976;20.144;2023-05-02T05:42:19;100048.97;;;13.36;46.26
36664;BME280;53333;51.976;20.144;2023-05-02T05:44:56;100055.75;;;13.41;46.30
36664;BME280;53333;51.976;20.144;2023-05-02T05:47:30;100050.56;;;13.53;46.23
36664;BME280;53333;51.976;20.144;2023-05-02T05:50:04;100042.53;;;13.67;46.26
36664;BME280;53333;51.976;20.144;2023-05-02T05:52:38;100046.81;;;13.84;45.98
36664;BME280;53333;51.976;20.144;2023-05-02T05:55:12;100047.53;;;14.01;45.80
36664;BME280;53333;51.976;20.144;2023-05-02T05:57:45;100049.69;;;14.23;45.59
36664;BME280;53333;51.976;20.144;2023-05-02T06:00:18;100052.03;;;14.42;45.45
36664;BME280;53333;51.976;20.144;2023-05-02T06:02:54;100060.50;;;14.63;45.19
36664;BME280;53333;51.976;20.144;2023-05-02T06:05:31;100050.25;;;14.82;44.97
36664;BME280;53333;51.976;20.144;2023-05-02T06:08:04;100044.34;;;15.03;44.70
36664;BME280;53333;51.976;20.144;2023-05-02T06:10:38;100036.63;;;15.24;44.67
36664;BME280;53333;51.976;20.144;2023-05-02T06:13:12;100048.44;;;15.47;44.42
36664;BME280;53333;51.976;20.144;2023-05-02T06:15:47;100050.59;;;15.68;44.11
36664;BME280;53333;51.976;20.144;2023-05-02T06:18:20;100058.22;;;15.87;43.95
36664;BME280;53333;51.976;20.144;2023-05-02T06:20:53;100055.06;;;16.06;43.79
36664;BME280;53333;51.976;20.144;2023-05-02T06:23:26;100059.31;;;16.21;43.72
36664;BME280;53333;51.976;20.144;2023-05-02T06:26:01;100058.69;;;16.42;43.48
36664;BME280;53333;51.976;20.144;2023-05-02T06:28:34;100068.47;;;16.67;43.17
36664;BME280;53333;51.976;20.144;2023-05-02T06:31:07;100065.66;;;16.93;42.58
36664;BME280;53333;51.976;20.144;2023-05-02T06:33:40;100058.63;;;17.14;42.17
36664;BME280;53333;51.976;20.144;2023-05-02T06:36:13;100056.06;;;17.35;41.89
36664;BME280;53333;51.976;20.144;2023-05-02T06:38:46;100050.81;;;17.56;41.39
36664;BME280;53333;51.976;20.144;2023-05-02T06:41:20;100048.38;;;17.76;41.09
36664;BME280;53333;51.976;20.144;2023-05-02T06:43:54;100050.47;;;17.95;40.81
36664;BME280;53333;51.976;20.144;2023-05-02T06:46:28;100053.50;;;18.13;40.50
36664;BME280;53333;51.976;20.144;2023-05-02T06:49:02;100062.19;;;18.28;39.98
36664;BME280;53333;51.976;20.144;2023-05-02T06:51:34;100055.75;;;18.40;40.04
36664;BME280;53333;51.976;20.144;2023-05-02T06:54:07;100063.84;;;18.51;39.52
36664;BME280;53333;51.976;20.144;2023-05-02T06:56:41;100067.88;;;18.57;39.33
36664;BME280;53333;51.976;20.144;2023-05-02T06:59:15;100079.31;;;18.61;38.99
36664;BME280;53333;51.976;20.144;2023-05-02T07:01:48;100070.53;;;18.68;39.07
36664;BME280;53333;51.976;20.144;2023-05-02T07:04:21;100078.34;;;18.83;38.99
36664;BME280;53333;51.976;20.144;2023-05-02T07:06:54;100074.63;;;18.95;38.80
36664;BME280;53333;51.976;20.144;2023-05-02T07:09:27;100083.41;;;19.09;38.53
36664;BME280;53333;51.976;20.144;2023-05-02T07:12:01;100084.47;;;19.17;38.33
36664;BME280;53333;51.976;20.144;2023-05-02T07:14:37;100092.06;;;19.23;38.15
36664;BME280;53333;51.976;20.144;2023-05-02T07:17:10;100091.22;;;19.23;38.25
36664;BME280;53333;51.976;20.144;2023-05-02T07:19:43;100094.50;;;19.27;38.48
36664;BME280;53333;51.976;20.144;2023-05-02T07:22:16;100088.16;;;19.37;38.41
36664;BME280;53333;51.976;20.144;2023-05-02T07:24:56;100091.81;;;19.57;38.35
36664;BME280;53333;51.976;20.144;2023-05-02T07:27:33;100086.94;;;19.72;38.15
36664;BME280;53333;51.976;20.144;2023-05-02T07:30:07;100089.31;;;19.87;37.64
36664;BME280;53333;51.976;20.144;2023-05-02T07:32:40;100093.78;;;19.98;37.44
36664;BME280;53333;51.976;20.144;2023-05-02T07:35:13;100098.94;;;20.10;37.68
36664;BME280;53333;51.976;20.144;2023-05-02T07:37:46;100102.97;;;20.26;37.49
36664;BME280;53333;51.976;20.144;2023-05-02T07:40:19;100099.44;;;20.45;37.73
36664;BME280;53333;51.976;20.144;2023-05-02T07:42:53;100101.47;;;20.62;37.50
36664;BME280;53333;51.976;20.144;2023-05-02T07:45:26;100099.81;;;20.81;37.23
36664;BME280;53333;51.976;20.144;2023-05-02T07:47:59;100108.66;;;21.02;36.32
36664;BME280;53333;51.976;20.144;2023-05-02T07:50:32;100118.38;;;21.25;35.73
36664;BME280;53333;51.976;20.144;2023-05-02T07:53:05;100115.59;;;21.44;36.22
36664;BME280;53333;51.976;20.144;2023-05-02T07:55:38;100104.31;;;21.58;35.95
36664;BME280;53333;51.976;20.144;2023-05-02T07:58:12;100110.31;;;21.62;35.64
36664;BME280;53333;51.976;20.144;2023-05-02T08:00:45;100116.19;;;21.57;35.89
36664;BME280;53333;51.976;20.144;2023-05-02T08:03:21;100116.47;;;21.64;35.53
36664;BME280;53333;51.976;20.144;2023-05-02T08:05:54;100111.78;;;21.84;36.19
36664;BME280;53333;51.976;20.144;2023-05-02T08:08:27;100110.56;;;22.06;36.06
36664;BME280;53333;51.976;20.144;2023-05-02T08:11:00;100124.78;;;22.28;35.34
36664;BME280;53333;51.976;20.144;2023-05-02T08:13:34;100120.69;;;22.52;34.78
36664;BME280;53333;51.976;20.144;2023-05-02T08:16:07;100130.13;;;22.75;34.69
36664;BME280;53333;51.976;20.144;2023-05-02T08:18:40;100124.81;;;22.92;33.95
36664;BME280;53333;51.976;20.144;2023-05-02T08:21:13;100131.69;;;23.14;34.18
36664;BME280;53333;51.976;20.144;2023-05-02T08:23:46;100128.63;;;23.35;34.21
36664;BME280;53333;51.976;20.144;2023-05-02T08:26:19;100134.09;;;23.61;33.43
36664;BME280;53333;51.976;20.144;2023-05-02T08:28:54;100127.94;;;23.59;32.80
36664;BME280;53333;51.976;20.144;2023-05-02T08:31:27;100140.53;;;23.34;33.18
36664;BME280;53333;51.976;20.144;2023-05-02T08:34:00;100145.06;;;23.07;33.33
36664;BME280;53333;51.976;20.144;2023-05-02T08:36:32;100146.38;;;22.85;34.02
36664;BME280;53333;51.976;20.144;2023-05-02T08:39:05;100149.47;;;22.72;34.63
36664;BME280;53333;51.976;20.144;2023-05-02T08:41:40;100156.44;;;22.57;35.15
36664;BME280;53333;51.976;20.144;2023-05-02T08:44:14;100162.41;;;22.42;35.00
36664;BME280;53333;51.976;20.144;2023-05-02T08:46:48;100158.47;;;22.17;35.82
36664;BME280;53333;51.976;20.144;2023-05-02T08:49:23;100172.19;;;21.88;35.94
36664;BME280;53333;51.976;20.144;2023-05-02T08:51:59;100179.25;;;21.61;36.41
36664;BME280;53333;51.976;20.144;2023-05-02T08:54:33;100183.09;;;21.39;36.85
36664;BME280;53333;51.976;20.144;2023-05-02T08:57:05;100190.56;;;21.37;36.34
36664;BME280;53333;51.976;20.144;2023-05-02T08:59:41;100190.97;;;21.22;36.62
36664;BME280;53333;51.976;20.144;2023-05-02T09:02:24;100198.25;;;21.22;37.34
36664;BME280;53333;51.976;20.144;2023-05-02T09:05:05;100189.25;;;21.41;37.41
36664;BME280;53333;51.976;20.144;2023-05-02T09:07:43;100190.19;;;21.89;36.93
36664;BME280;53333;51.976;20.144;2023-05-02T09:10:17;100189.34;;;22.36;36.16
36664;BME280;53333;51.976;20.144;2023-05-02T09:12:50;100195.31;;;22.95;35.39
36664;BME280;53333;51.976;20.144;2023-05-02T09:15:24;100189.09;;;23.02;35.35
36664;BME280;53333;51.976;20.144;2023-05-02T09:17:57;100191.84;;;23.20;35.17
36664;BME280;53333;51.976;20.144;2023-05-02T09:20:39;100187.72;;;23.34;35.12
36664;BME280;53333;51.976;20.144;2023-05-02T09:23:12;100194.19;;;23.33;35.47
36664;BME280;53333;51.976;20.144;2023-05-02T09:25:45;100194.25;;;23.24;35.42
36664;BME280;53333;51.976;20.144;2023-05-02T09:28:18;100215.06;;;22.97;35.12
36664;BME280;53333;51.976;20.144;2023-05-02T09:31:05;100210.81;;;22.66;35.54
36664;BME280;53333;51.976;20.144;2023-05-02T09:33:39;100222.41;;;22.41;36.09
36664;BME280;53333;51.976;20.144;2023-05-02T09:36:13;100224.59;;;22.18;36.33
36664;BME280;53333;51.976;20.144;2023-05-02T09:38:47;100228.13;;;21.81;37.11
36664;BME280;53333;51.976;20.144;2023-05-02T09:41:20;100237.84;;;21.44;37.02
36664;BME280;53333;51.976;20.144;2023-05-02T09:43:54;100239.31;;;21.19;37.35
36664;BME280;53333;51.976;20.144;2023-05-02T09:46:38;100229.63;;;20.76;38.01
36664;BME280;53333;51.976;20.144;2023-05-02T09:49:12;100247.34;;;20.39;38.39
36664;BME280;53333;51.976;20.144;2023-05-02T09:51:49;100247.31;;;20.08;39.20
36664;BME280;53333;51.976;20.144;2023-05-02T09:54:32;100245.34;;;19.89;38.73
36664;BME280;53333;51.976;20.144;2023-05-02T09:57:06;100266.78;;;19.60;39.46
36664;BME280;53333;51.976;20.144;2023-05-02T09:59:52;100270.78;;;19.45;40.06
36664;BME280;53333;51.976;20.144;2023-05-02T10:02:27;100271.16;;;19.40;39.28
36664;BME280;53333;51.976;20.144;2023-05-02T10:05:03;100278.91;;;19.12;40.22
36664;BME280;53333;51.976;20.144;2023-05-02T10:07:38;100281.16;;;18.96;40.04
36664;BME280;53333;51.976;20.144;2023-05-02T10:10:16;100281.91;;;18.75;40.79
36664;BME280;53333;51.976;20.144;2023-05-02T10:12:51;100297.25;;;18.63;41.42
36664;BME280;53333;51.976;20.144;2023-05-02T10:15:28;100300.84;;;18.52;42.42
36664;BME280;53333;51.976;20.144;2023-05-02T10:18:19;100303.41;;;18.43;42.56
36664;BME280;53333;51.976;20.144;2023-05-02T10:20:56;100305.00;;;18.34;43.57
36664;BME280;53333;51.976;20.144;2023-05-02T10:23:30;100312.38;;;18.32;43.92
36664;BME280;53333;51.976;20.144;2023-05-02T10:26:03;100307.47;;;18.37;44.59
36664;BME280;53333;51.976;20.144;2023-05-02T10:28:37;100308.59;;;18.57;44.30
36664;BME280;53333;51.976;20.144;2023-05-02T10:31:12;100303.53;;;18.98;43.84
36664;BME280;53333;51.976;20.144;2023-05-02T10:33:49;100308.22;;;19.72;42.61
36664;BME280;53333;51.976;20.144;2023-05-02T10:36:23;100309.03;;;20.47;42.26
36664;BME280;53333;51.976;20.144;2023-05-02T10:38:59;100305.47;;;20.77;41.56
36664;BME280;53333;51.976;20.144;2023-05-02T10:41:33;100311.00;;;21.07;41.05
36664;BME280;53333;51.976;20.144;2023-05-02T10:44:07;100312.94;;;21.35;40.46
36664;BME280;53333;51.976;20.144;2023-05-02T10:46:40;100305.25;;;21.60;40.04
36664;BME280;53333;51.976;20.144;2023-05-02T10:49:15;100308.81;;;21.80;38.98
36664;BME280;53333;51.976;20.144;2023-05-02T10:51:49;100324.13;;;21.91;38.63
36664;BME280;53333;51.976;20.144;2023-05-02T10:54:23;100319.69;;;21.80;38.52
36664;BME280;53333;51.976;20.144;2023-05-02T10:57:04;100320.28;;;21.74;39.30
36664;BME280;53333;51.976;20.144;2023-05-02T10:59:39;100319.28;;;21.65;38.76
36664;BME280;53333;51.976;20.144;2023-05-02T11:02:48;100321.41;;;21.52;39.40
36664;BME280;53333;51.976;20.144;2023-05-02T11:05:24;100328.28;;;21.56;39.22
36664;BME280;53333;51.976;20.144;2023-05-02T11:08:31;100331.28;;;21.92;38.40
36664;BME280;53333;51.976;20.144;2023-05-02T11:11:39;100333.22;;;22.48;38.00
36664;BME280;53333;51.976;20.144;2023-05-02T11:14:46;100325.25;;;23.12;36.89
36664;BME280;53333;51.976;20.144;2023-05-02T11:17:19;100339.47;;;23.70;35.74
36664;BME280;53333;51.976;20.144;2023-05-02T11:20:23;100321.94;;;24.08;35.48
36664;BME280;53333;51.976;20.144;2023-05-02T11:22:58;100320.94;;;24.36;34.88
36664;BME280;53333;51.976;20.144;2023-05-02T11:25:54;100328.44;;;24.60;34.13
36664;BME280;53333;51.976;20.144;2023-05-02T11:28:41;100335.19;;;24.74;33.65
36664;BME280;53333;51.976;20.144;2023-05-02T11:34:41;100336.19;;;24.73;33.02
36664;BME280;53333;51.976;20.144;2023-05-02T11:37:17;100342.00;;;24.52;32.43
36664;BME280;53333;51.976;20.144;2023-05-02T11:39:51;100345.75;;;24.24;32.57
36664;BME280;53333;51.976;20.144;2023-05-02T11:42:28;100345.00;;;23.96;32.38
36664;BME280;53333;51.976;20.144;2023-05-02T11:45:01;100347.94;;;23.67;32.86
36664;BME280;53333;51.976;20.144;2023-05-02T11:47:35;100352.69;;;23.47;32.79
36664;BME280;53333;51.976;20.144;2023-05-02T11:50:09;100359.88;;;23.20;33.14
36664;BME280;53333;51.976;20.144;2023-05-02T11:52:44;100359.59;;;22.85;33.02
36664;BME280;53333;51.976;20.144;2023-05-02T11:55:17;100371.91;;;22.42;33.70
36664;BME280;53333;51.976;20.144;2023-05-02T11:57:50;100365.06;;;21.99;34.03
36664;BME280;53333;51.976;20.144;2023-05-02T12:00:26;100371.47;;;21.69;34.74
36664;BME280;53333;51.976;20.144;2023-05-02T12:02:59;100369.75;;;21.48;34.99
36664;BME280;53333;51.976;20.144;2023-05-02T12:05:32;100376.22;;;21.26;35.35
36664;BME280;53333;51.976;20.144;2023-05-02T12:08:06;100381.34;;;21.10;35.68
36664;BME280;53333;51.976;20.144;2023-05-02T12:10:39;100380.97;;;20.93;36.18
36664;BME280;53333;51.976;20.144;2023-05-02T12:13:12;100385.31;;;20.75;36.34
36664;BME280;53333;51.976;20.144;2023-05-02T12:15:47;100391.34;;;20.57;36.79
36664;BME280;53333;51.976;20.144;2023-05-02T12:18:22;100386.50;;;20.40;37.07
36664;BME280;53333;51.976;20.144;2023-05-02T12:20:55;100386.72;;;20.27;36.58
36664;BME280;53333;51.976;20.144;2023-05-02T12:23:30;100389.50;;;20.16;36.92
36664;BME280;53333;51.976;20.144;2023-05-02T12:26:15;100393.91;;;20.17;37.54
36664;BME280;53333;51.976;20.144;2023-05-02T12:28:49;100395.69;;;20.27;37.91
36664;BME280;53333;51.976;20.144;2023-05-02T12:31:23;100404.09;;;20.45;37.54
36664;BME280;53333;51.976;20.144;2023-05-02T12:33:56;100401.19;;;20.79;37.38
36664;BME280;53333;51.976;20.144;2023-05-02T12:36:30;100399.22;;;21.22;36.53
36664;BME280;53333;51.976;20.144;2023-05-02T12:39:06;100383.72;;;21.44;35.83
36664;BME280;53333;51.976;20.144;2023-05-02T12:41:39;100400.34;;;21.60;34.69
36664;BME280;53333;51.976;20.144;2023-05-02T12:44:14;100398.50;;;21.61;34.88
36664;BME280;53333;51.976;20.144;2023-05-02T12:46:57;100389.19;;;21.53;34.37
36664;BME280;53333;51.976;20.144;2023-05-02T12:49:31;100397.69;;;21.39;34.49
36664;BME280;53333;51.976;20.144;2023-05-02T12:52:04;100404.38;;;21.25;35.09
36664;BME280;53333;51.976;20.144;2023-05-02T12:54:38;100402.66;;;21.14;35.20
36664;BME280;53333;51.976;20.144;2023-05-02T12:57:21;100397.91;;;21.07;35.37
36664;BME280;53333;51.976;20.144;2023-05-02T12:59:55;100408.44;;;21.00;34.88
36664;BME280;53333;51.976;20.144;2023-05-02T13:02:28;100411.84;;;20.92;34.79
36664;BME280;53333;51.976;20.144;2023-05-02T13:05:01;100416.88;;;20.76;34.72
36664;BME280;53333;51.976;20.144;2023-05-02T13:07:35;100410.19;;;20.59;35.41
36664;BME280;53333;51.976;20.144;2023-05-02T13:10:09;100417.88;;;20.54;36.19
36664;BME280;53333;51.976;20.144;2023-05-02T13:12:42;100420.91;;;20.60;36.61
36664;BME280;53333;51.976;20.144;2023-05-02T13:15:17;100413.97;;;20.67;36.43
36664;BME280;53333;51.976;20.144;2023-05-02T13:17:51;100411.44;;;20.76;35.95
36664;BME280;53333;51.976;20.144;2023-05-02T13:20:24;100423.22;;;20.86;35.84
36664;BME280;53333;51.976;20.144;2023-05-02T13:22:57;100419.97;;;20.92;35.41
36664;BME280;53333;51.976;20.144;2023-05-02T13:25:31;100424.53;;;20.92;35.42
36664;BME280;53333;51.976;20.144;2023-05-02T13:28:04;100432.66;;;20.92;35.47